Warren, NJ (07059)

11:32 AM EST on March 05, 2015 (GMT -0500)
Round Top Rd. | Change Station
CLOSE
Current Station
Personal Weather Station
Location: Warren, NJ
Elevation: 499 ft
Nearby Weather Stations
Active Advisory: Winter Storm Warning Active Notice: Public Information Statement

Elev 499 ft 40.63 °N, 74.55 °W | Updated 31 seconds ago

Snow
Snow
23.9 °F
Feels Like 24 °F
N
0.0
Wind Variable Wind from NE
Gusts 0.0 mph

Today
High -- | Low -- °F
--% Chance of Precip.
Yesterday
High -- | Low -- °F
Precip. -- in
6:26 AM 5:53 PM
Full, 100% visible
Pressure 30.15 in
Visibility 0.5 miles
Clouds
Windchill 24 °F
Dew Point 21 °F
Humidity 88%
Rainfall in
Snow Depth Not available.
UV Not available.
Pollen .60 out of 12
Air Quality Not available.
Flu Activity Not available.
SPECI KSMQ 051626Z AUTO 32010KT 1/2SM SN FZFG VV014 M04/M07 A3015 RMK AO2 P0000 T10441067 TSNO

More Conditions Fewer Conditions

Pressure 30.15 in
Visibility 0.5 miles
Clouds
Windchill 24 °F
Dew Point 21 °F
Humidity 88%
Rainfall in
Snow Depth Not available.
UV Not available.
Pollen .60 out of 12
Air Quality Not available.
Flu Activity Not available.
SPECI KSMQ 051626Z AUTO 32010KT 1/2SM SN FZFG VV014 M04/M07 A3015 RMK AO2 P0000 T10441067 TSNO

More Conditions Fewer Conditions

10-Day Weather Forecast

Almanac

Astronomy

Mar. 05, 2015 Rise Set
Actual Time
Civil Twilight
Nautical Twilight
Astronomical Twilight
Moon
Length of Visible Light
Length of Day
Tomorrow will be .
, % of the Moon is Illuminated

Today's Extremes

State Highs State Lows

Community

WunderPhotos

Upload Photos

1,802,849 photos uploaded!

WunderBlogs® & News

Nearby

Air Quality

  Air Quality AQ Index Pollutant
Not available.

Snow Depth

Station Depth Elevation

Earthquake Activity

City Distance Mag. Time & Date
Minimum magnitude displayed is 2.5.

Coastal Water Temperatures

Place Temperature

Nearby Weather Stations

Winter Storm Warning
Statement as of 10:22 AM EST on March 05, 2015

... Winter Storm Warning remains in effect until 7 PM EST this
evening...

* locations... portions of eastern Pennsylvania and central New
Jersey.

* Hazard types... a period of sleet then long duration snow.

* Snow accumulations... 4 to 8 inches.

* Timing... snow... continuing through the early
afternoon... possibly heavy at times.

* Temperatures... in the mid 20s.

* Wind... becoming north and gusting to 20 mph during the day
Thursday.

* Visibility... may lower briefly to one half mile during this
morning into the midday.

* Impacts... widespread and substantial impacts on travel are
expected.

Precautionary/preparedness actions...

This Winter Storm Warning means that significant amounts of snow
are expected. The snow will make travel very hazardous or
impossible.